createdAt,value
2018-12-12T00:01:48.000Z,3.97
2018-12-12T00:04:15.390Z,3.40
2018-12-12T00:06:42.763Z,3.80
2018-12-12T00:09:10.059Z,3.43
2018-12-12T00:11:37.230Z,5.40
2018-12-12T00:14:04.667Z,4.43
2018-12-12T00:16:31.866Z,3.30
2018-12-12T00:18:58.974Z,4.60
2018-12-12T00:21:26.224Z,4.70
2018-12-12T00:23:53.425Z,3.20
2018-12-12T00:26:20.654Z,3.43
2018-12-12T00:28:47.778Z,4.07
2018-12-12T00:31:15.011Z,3.40
2018-12-12T00:33:42.223Z,3.50
2018-12-12T00:36:09.332Z,4.10
2018-12-12T00:38:36.508Z,3.93
2018-12-12T00:41:03.754Z,4.63
2018-12-12T00:43:30.867Z,4.27
2018-12-12T00:45:58.979Z,3.23
2018-12-12T00:48:26.090Z,4.17
2018-12-12T00:50:53.203Z,4.60
2018-12-12T00:53:20.479Z,4.80
2018-12-12T00:55:47.599Z,4.40
2018-12-12T00:58:14.882Z,4.40
2018-12-12T01:00:42.147Z,4.17
2018-12-12T01:03:09.402Z,5.93
2018-12-12T01:05:36.535Z,3.37
2018-12-12T01:08:03.792Z,4.17
2018-12-12T01:10:30.941Z,6.10
2018-12-12T01:12:58.127Z,3.97
2018-12-12T01:15:25.427Z,3.20
2018-12-12T01:17:52.572Z,5.50
2018-12-12T01:20:19.688Z,4.30
2018-12-12T01:22:46.891Z,4.07
2018-12-12T01:25:14.007Z,5.23
2018-12-12T01:27:41.143Z,4.40
2018-12-12T01:30:08.429Z,4.07
2018-12-12T01:32:35.571Z,4.30
2018-12-12T01:35:02.922Z,3.50
2018-12-12T01:37:30.908Z,3.87
2018-12-12T01:39:58.031Z,5.33
2018-12-12T01:42:25.175Z,4.30
2018-12-12T01:44:52.360Z,4.23
2018-12-12T01:47:19.502Z,5.00
2018-12-12T01:49:46.635Z,5.30
2018-12-12T01:52:13.852Z,5.03
2018-12-12T01:54:41.000Z,4.70
2018-12-12T01:57:08.143Z,4.27
2018-12-12T01:59:35.398Z,5.03
2018-12-12T02:02:02.582Z,5.13
2018-12-12T02:04:29.723Z,6.30
2018-12-12T02:06:56.967Z,4.83
2018-12-12T02:09:24.202Z,5.67
2018-12-12T02:11:51.342Z,5.30
2018-12-12T02:14:18.564Z,5.17
2018-12-12T02:16:45.819Z,6.40
2018-12-12T02:19:12.966Z,5.50
2018-12-12T02:21:40.154Z,7.20
2018-12-12T02:24:07.291Z,6.57
2018-12-12T02:26:34.411Z,5.80
2018-12-12T02:29:01.867Z,5.87
2018-12-12T02:31:29.020Z,5.17
2018-12-12T02:33:56.166Z,5.07
2018-12-12T02:36:23.364Z,5.10
2018-12-12T02:38:50.501Z,6.13
2018-12-12T02:41:17.632Z,5.87
2018-12-12T02:43:44.931Z,5.67
2018-12-12T02:46:12.085Z,6.23
2018-12-12T02:48:39.207Z,8.20
2018-12-12T02:51:06.406Z,6.17
2018-12-12T02:53:33.587Z,6.87
2018-12-12T02:56:00.709Z,6.87
2018-12-12T02:58:27.898Z,6.67
2018-12-12T03:00:55.113Z,5.93
2018-12-12T03:03:22.232Z,8.67
2018-12-12T03:05:49.446Z,7.33
2018-12-12T03:08:16.563Z,7.37
2018-12-12T03:10:43.693Z,8.57
2018-12-12T03:13:10.903Z,8.53
2018-12-12T03:15:38.039Z,8.53
2018-12-12T03:18:05.212Z,9.90
2018-12-12T03:20:32.475Z,9.43
2018-12-12T03:22:59.595Z,8.53
2018-12-12T03:25:26.706Z,9.87
2018-12-12T03:27:54.020Z,8.23
2018-12-12T03:30:21.170Z,8.90
2018-12-12T03:32:48.299Z,8.63
2018-12-12T03:35:15.590Z,7.53
2018-12-12T03:37:42.839Z,7.37
2018-12-12T03:40:10.320Z,9.03
2018-12-12T03:42:37.615Z,8.17
2018-12-12T03:45:05.216Z,9.33
2018-12-12T03:47:32.369Z,8.07
2018-12-12T03:49:59.557Z,9.47
2018-12-12T03:52:26.695Z,7.07
2018-12-12T03:54:53.842Z,8.23
2018-12-12T03:57:21.070Z,7.90
2018-12-12T03:59:48.203Z,10.53
2018-12-12T04:02:15.408Z,9.00
2018-12-12T04:04:42.681Z,8.33
2018-12-12T04:07:09.835Z,12.10
2018-12-12T04:09:37.099Z,12.07
2018-12-12T04:12:04.487Z,11.37
2018-12-12T04:14:31.633Z,9.13
2018-12-12T04:16:58.759Z,9.07
2018-12-12T04:19:26.009Z,9.30
2018-12-12T04:21:53.391Z,9.50
2018-12-12T04:24:22.253Z,12.03
2018-12-12T04:26:49.474Z,10.73
2018-12-12T04:29:16.631Z,10.67
2018-12-12T04:31:43.775Z,11.37
2018-12-12T04:34:10.966Z,8.80
2018-12-12T04:36:38.107Z,10.27
2018-12-12T04:39:06.804Z,8.83
2018-12-12T04:41:34.023Z,9.97
2018-12-12T04:44:01.262Z,10.63
2018-12-12T04:46:28.400Z,13.90
2018-12-12T04:48:55.643Z,12.10
2018-12-12T04:51:22.775Z,12.27
2018-12-12T04:53:49.916Z,13.40
2018-12-12T04:56:17.114Z,12.97
2018-12-12T04:58:44.394Z,12.67
2018-12-12T05:01:11.528Z,10.30
2018-12-12T05:03:38.892Z,11.93
2018-12-12T05:06:06.054Z,12.77
2018-12-12T05:08:34.203Z,13.80
2018-12-12T05:11:01.384Z,13.63
2018-12-12T05:13:28.502Z,15.30
2018-12-12T05:15:55.633Z,13.13
2018-12-12T05:18:22.959Z,18.07
2018-12-12T05:20:50.186Z,15.70
2018-12-12T05:23:17.424Z,16.67
2018-12-12T05:25:45.730Z,17.03
2018-12-12T05:28:12.873Z,16.07
2018-12-12T05:30:40.035Z,17.03
2018-12-12T05:33:07.218Z,15.63
2018-12-12T05:35:34.370Z,16.13
2018-12-12T05:38:01.566Z,15.70
2018-12-12T05:40:28.987Z,16.97
2018-12-12T05:42:56.119Z,19.03
2018-12-12T05:45:23.560Z,19.73
2018-12-12T05:47:50.731Z,21.57
2018-12-12T05:50:17.864Z,20.73
2018-12-12T05:52:44.987Z,22.67
2018-12-12T05:55:12.191Z,24.27
2018-12-12T05:57:40.350Z,23.63
2018-12-12T06:00:08.320Z,24.67
2018-12-12T06:02:35.531Z,24.77
2018-12-12T06:05:02.871Z,24.73
2018-12-12T06:07:30.002Z,21.63
2018-12-12T06:09:57.238Z,25.17
2018-12-12T06:12:24.584Z,29.43
2018-12-12T06:14:51.692Z,28.37
2018-12-12T06:17:18.895Z,26.00
2018-12-12T06:19:46.259Z,28.70
2018-12-12T06:22:13.711Z,28.37
2018-12-12T06:24:41.023Z,26.73
2018-12-12T06:27:08.171Z,30.40
2018-12-12T06:29:35.323Z,30.67
2018-12-12T06:32:02.686Z,25.37
2018-12-12T06:34:29.801Z,30.17
2018-12-12T06:36:57.504Z,31.17
2018-12-12T06:39:24.682Z,25.20
2018-12-12T06:41:51.804Z,31.77
2018-12-12T06:44:18.943Z,28.47
2018-12-12T06:46:46.134Z,26.30
2018-12-12T06:49:13.290Z,31.00
2018-12-12T06:51:40.418Z,39.53
2018-12-12T06:54:07.621Z,34.43
2018-12-12T06:56:34.759Z,28.57
2018-12-12T06:59:01.927Z,36.73
2018-12-12T07:01:29.127Z,34.87
2018-12-12T07:03:57.002Z,32.10
2018-12-12T07:06:25.119Z,35.63
2018-12-12T07:08:55.982Z,32.93
2018-12-12T07:11:23.360Z,37.60
2018-12-12T07:13:52.943Z,34.83
2018-12-12T07:16:20.310Z,33.83
2018-12-12T07:18:47.623Z,35.37
2018-12-12T07:21:14.848Z,34.00
2018-12-12T07:23:42.268Z,34.23
2018-12-12T07:26:10.593Z,29.43
2018-12-12T07:31:45.423Z,35.13
2018-12-12T07:34:30.139Z,35.97
2018-12-12T07:36:57.983Z,33.60
2018-12-12T07:39:29.515Z,32.73
2018-12-12T07:41:59.237Z,30.53
2018-12-12T07:44:35.534Z,30.60
2018-12-12T07:47:04.048Z,29.90
2018-12-12T07:49:32.359Z,31.40
2018-12-12T07:52:00.216Z,30.67
2018-12-12T07:54:27.430Z,31.33
2018-12-12T07:56:54.531Z,26.50
2018-12-12T07:59:23.822Z,30.00
2018-12-12T08:01:51.057Z,27.37
2018-12-12T08:04:18.319Z,30.33
2018-12-12T08:06:45.768Z,28.60
2018-12-12T08:09:12.988Z,27.13
2018-12-12T08:11:40.112Z,28.27
2018-12-12T08:14:07.290Z,27.97
2018-12-12T08:16:34.506Z,27.50
2018-12-12T08:19:01.661Z,27.23
2018-12-12T08:21:28.768Z,25.37
2018-12-12T08:23:55.910Z,22.23
2018-12-12T08:26:22.990Z,20.67
2018-12-12T08:28:50.076Z,21.23
2018-12-12T08:31:17.244Z,21.50
2018-12-12T08:33:44.319Z,21.83
2018-12-12T08:36:11.435Z,21.57
2018-12-12T08:38:38.596Z,18.67
2018-12-12T08:41:05.683Z,21.33
2018-12-12T08:43:32.795Z,17.60
2018-12-12T08:45:59.939Z,18.77
2018-12-12T08:48:27.038Z,16.23
2018-12-12T08:50:54.124Z,18.90
2018-12-12T08:53:21.245Z,16.70
2018-12-12T08:55:48.353Z,17.97
2018-12-12T08:58:15.453Z,18.00
2018-12-12T09:00:42.624Z,18.40
2018-12-12T09:03:09.764Z,17.30
2018-12-12T09:05:36.967Z,15.93
2018-12-12T09:08:04.232Z,18.53
2018-12-12T09:10:31.345Z,17.77
2018-12-12T09:12:58.463Z,17.10
2018-12-12T09:15:25.616Z,13.73
2018-12-12T09:17:52.683Z,16.83
2018-12-12T09:20:19.751Z,16.70
2018-12-12T09:22:46.887Z,15.50
2018-12-12T09:25:13.949Z,14.83
2018-12-12T09:27:41.049Z,17.00
2018-12-12T09:30:08.330Z,17.23
2018-12-12T09:32:35.527Z,17.17
2018-12-12T09:35:02.657Z,16.60
2018-12-12T09:37:29.791Z,16.50
2018-12-12T09:39:56.875Z,17.20
2018-12-12T09:42:23.974Z,16.37
2018-12-12T09:44:51.196Z,18.23
2018-12-12T09:47:18.502Z,15.67
2018-12-12T09:49:45.729Z,18.50
2018-12-12T09:52:12.876Z,14.90
2018-12-12T09:54:40.083Z,17.43
2018-12-12T09:57:07.182Z,16.53
2018-12-12T09:59:34.363Z,18.77
2018-12-12T10:02:01.451Z,16.43
2018-12-12T10:04:28.544Z,17.63
2018-12-12T10:06:55.695Z,17.03
2018-12-12T10:09:22.869Z,15.33
2018-12-12T10:11:49.967Z,15.13
2018-12-12T10:14:17.148Z,13.63
2018-12-12T10:16:44.260Z,14.93
2018-12-12T10:19:11.362Z,13.67
2018-12-12T10:21:38.550Z,15.90
2018-12-12T10:24:05.643Z,19.00
2018-12-12T10:26:32.858Z,15.33
2018-12-12T10:29:00.131Z,14.70
2018-12-12T10:31:27.343Z,16.73
2018-12-12T10:33:54.535Z,14.93
2018-12-12T10:36:21.691Z,15.67
2018-12-12T10:38:48.791Z,14.73
2018-12-12T10:41:15.871Z,16.27
2018-12-12T10:43:43.051Z,15.20
2018-12-12T10:46:10.135Z,15.50
2018-12-12T10:48:37.220Z,16.20
2018-12-12T10:51:04.514Z,18.80
2018-12-12T10:53:31.639Z,17.10
2018-12-12T10:55:58.747Z,16.73
2018-12-12T10:58:25.943Z,18.87
2018-12-12T11:00:58.664Z,20.27
2018-12-12T11:03:31.449Z,18.03
2018-12-12T11:05:58.561Z,18.73
2018-12-12T11:08:26.726Z,18.63
2018-12-12T11:10:54.163Z,17.93
2018-12-12T11:13:21.384Z,19.57
2018-12-12T11:15:48.558Z,19.43
2018-12-12T11:18:16.051Z,21.80
2018-12-12T11:20:43.270Z,21.27
2018-12-12T11:23:10.452Z,22.80
2018-12-12T11:25:37.776Z,20.07
2018-12-12T11:28:05.007Z,22.07
2018-12-12T11:30:32.176Z,18.97
2018-12-12T11:32:59.397Z,19.70
2018-12-12T11:35:26.513Z,18.50
2018-12-12T11:37:53.616Z,20.00
2018-12-12T11:40:20.914Z,19.63
2018-12-12T11:42:48.104Z,18.87
2018-12-12T11:45:15.323Z,18.40
2018-12-12T11:47:43.209Z,19.47
2018-12-12T11:50:10.388Z,17.60
2018-12-12T11:52:37.511Z,15.33
2018-12-12T11:55:04.835Z,15.20
2018-12-12T11:57:32.268Z,15.77
2018-12-12T11:59:59.398Z,14.80
2018-12-12T12:02:26.598Z,16.37
2018-12-12T12:04:53.741Z,15.13
2018-12-12T12:07:20.975Z,14.27
2018-12-12T12:09:48.284Z,13.90
2018-12-12T12:12:15.518Z,11.50
2018-12-12T12:14:42.762Z,12.00
2018-12-12T12:17:09.985Z,12.70
2018-12-12T12:19:37.120Z,15.90
2018-12-12T12:22:04.235Z,11.77
2018-12-12T12:24:31.447Z,13.60
2018-12-12T12:26:58.561Z,13.23
2018-12-12T12:29:25.811Z,12.73
2018-12-12T12:31:53.016Z,15.07
2018-12-12T12:34:20.139Z,14.40
2018-12-12T12:36:47.730Z,13.27
2018-12-12T12:39:14.910Z,13.40
2018-12-12T12:41:42.074Z,13.63
2018-12-12T12:44:09.260Z,13.80
2018-12-12T12:46:36.461Z,13.43
2018-12-12T12:49:03.754Z,16.43
2018-12-12T12:51:31.009Z,15.20
2018-12-12T12:53:58.271Z,15.33
2018-12-12T12:56:25.412Z,15.67
2018-12-12T12:58:52.543Z,17.13
2018-12-12T13:01:19.835Z,18.30
2018-12-12T13:03:46.964Z,16.13
2018-12-12T13:06:14.112Z,14.60
2018-12-12T13:08:41.455Z,16.63
2018-12-12T13:11:14.674Z,17.67
2018-12-12T13:13:37.800Z,18.70
2018-12-12T13:16:05.024Z,20.00
2018-12-12T13:18:32.230Z,17.60
2018-12-12T13:20:59.371Z,21.03
2018-12-12T13:23:26.540Z,19.07
2018-12-12T13:25:53.790Z,19.47
2018-12-12T13:28:20.896Z,19.13
2018-12-12T13:30:48.066Z,20.13
2018-12-12T13:33:15.210Z,19.10
2018-12-12T13:35:42.408Z,17.93
2018-12-12T13:38:10.427Z,19.90
2018-12-12T13:40:37.652Z,18.53
2018-12-12T13:43:04.807Z,18.23
2018-12-12T13:45:33.127Z,17.20
2018-12-12T13:48:00.268Z,21.43
2018-12-12T13:50:27.387Z,18.70
2018-12-12T13:52:54.689Z,18.77
2018-12-12T13:55:21.836Z,17.30
2018-12-12T13:57:48.961Z,17.97
2018-12-12T14:00:16.627Z,18.17
2018-12-12T14:02:43.769Z,20.43
2018-12-12T14:05:10.938Z,18.43
2018-12-12T14:07:38.097Z,20.30
2018-12-12T14:12:30.233Z,19.40
2018-12-12T14:14:57.386Z,21.60
2018-12-12T14:17:24.506Z,18.97
2018-12-12T14:19:51.610Z,20.30
2018-12-12T14:22:18.801Z,19.23
2018-12-12T14:27:44.934Z,18.97
2018-12-12T14:30:12.137Z,17.77
2018-12-12T14:32:39.267Z,19.70
2018-12-12T14:35:06.459Z,18.57
2018-12-12T14:37:33.638Z,18.53
2018-12-12T14:40:00.733Z,19.27
2018-12-12T14:42:27.904Z,19.73
2018-12-12T14:44:55.001Z,21.17
2018-12-12T14:47:22.081Z,22.33
2018-12-12T14:49:49.299Z,23.67
2018-12-12T14:52:16.401Z,18.27
2018-12-12T14:54:43.494Z,21.87
2018-12-12T14:57:10.746Z,22.30
2018-12-12T14:59:37.923Z,24.00
2018-12-12T15:02:05.104Z,20.37
2018-12-12T15:04:35.916Z,26.43
2018-12-12T15:07:04.247Z,24.17
2018-12-12T15:09:31.439Z,24.77
2018-12-12T15:11:58.617Z,25.77
2018-12-12T15:14:25.759Z,28.40
2018-12-12T15:16:53.059Z,27.97
2018-12-12T15:19:20.156Z,34.17
2018-12-12T15:21:47.296Z,33.63
2018-12-12T15:24:14.479Z,31.87
2018-12-12T15:26:41.559Z,29.10
2018-12-12T15:29:08.671Z,31.73
2018-12-12T15:31:36.123Z,27.20
2018-12-12T15:34:03.359Z,24.33
2018-12-12T15:36:30.614Z,30.20
2018-12-12T15:41:55.070Z,30.03
2018-12-12T15:44:22.651Z,24.43
2018-12-12T15:46:49.827Z,27.60
2018-12-12T15:49:17.387Z,31.83
2018-12-12T15:51:44.531Z,33.40
2018-12-12T15:54:11.715Z,26.77
2018-12-12T15:56:38.875Z,29.10
2018-12-12T15:59:06.035Z,26.37
2018-12-12T16:01:33.243Z,30.83
2018-12-12T16:04:00.445Z,27.93
2018-12-12T16:06:27.555Z,32.47
2018-12-12T16:08:54.718Z,29.63
2018-12-12T16:11:21.951Z,26.27
2018-12-12T16:13:49.079Z,30.30
2018-12-12T16:16:16.282Z,29.47
2018-12-12T16:18:43.511Z,30.57
2018-12-12T16:21:10.644Z,30.27
2018-12-12T16:23:37.802Z,31.93
2018-12-12T16:26:05.066Z,26.63
2018-12-12T16:28:32.192Z,28.77
2018-12-12T16:30:59.307Z,29.50
2018-12-12T16:33:26.650Z,25.87
2018-12-12T16:35:53.754Z,31.07
2018-12-12T16:38:20.960Z,28.33
2018-12-12T16:40:48.115Z,25.23
2018-12-12T16:43:15.358Z,24.73
2018-12-12T16:45:42.447Z,26.00
2018-12-12T16:48:09.624Z,29.23
2018-12-12T16:50:36.748Z,26.07
2018-12-12T16:53:03.823Z,24.10
2018-12-12T16:55:31.015Z,28.90
2018-12-12T16:57:58.110Z,25.67
2018-12-12T17:00:25.249Z,26.77
2018-12-12T17:02:52.412Z,28.70
2018-12-12T17:05:19.502Z,23.60
2018-12-12T17:07:46.612Z,26.63
2018-12-12T17:10:13.904Z,26.70
2018-12-12T17:12:41.008Z,25.33
2018-12-12T17:15:08.199Z,24.87
2018-12-12T17:17:35.464Z,28.37
2018-12-12T17:20:02.739Z,31.40
2018-12-12T17:22:29.958Z,32.30
2018-12-12T17:24:57.126Z,34.40
2018-12-12T17:27:24.227Z,30.87
2018-12-12T17:29:51.325Z,33.23
2018-12-12T17:32:18.482Z,26.40
2018-12-12T17:34:45.579Z,28.20
2018-12-12T17:37:12.779Z,27.77
2018-12-12T17:39:40.027Z,24.37
2018-12-12T17:42:07.235Z,28.03
2018-12-12T17:44:34.535Z,26.83
2018-12-12T17:47:01.795Z,22.30
2018-12-12T17:49:28.908Z,29.77
2018-12-12T17:51:56.115Z,32.07
2018-12-12T17:54:23.393Z,27.70
2018-12-12T17:56:50.508Z,25.50
2018-12-12T17:59:17.623Z,25.73
2018-12-12T18:01:44.978Z,29.93
2018-12-12T18:04:12.066Z,29.03
2018-12-12T18:06:39.187Z,27.53
2018-12-12T18:09:07.363Z,26.23
2018-12-12T18:11:34.616Z,25.53
2018-12-12T18:14:01.748Z,28.83
2018-12-12T18:16:28.996Z,26.63
2018-12-12T18:18:56.225Z,23.43
2018-12-12T18:21:23.347Z,27.43
2018-12-12T18:23:50.736Z,28.40
2018-12-12T18:26:17.947Z,23.53
2018-12-12T18:28:45.111Z,23.53
2018-12-12T18:31:12.330Z,23.73
2018-12-12T18:33:39.789Z,23.63
2018-12-12T18:36:06.953Z,23.63
2018-12-12T18:38:34.212Z,25.23
2018-12-12T18:41:01.344Z,21.30
2018-12-12T18:43:29.253Z,22.53
2018-12-12T18:45:56.575Z,23.13
2018-12-12T18:48:23.967Z,22.00
2018-12-12T18:50:52.182Z,25.77
2018-12-12T18:53:19.352Z,24.37
2018-12-12T18:55:46.475Z,22.73
2018-12-12T18:58:13.602Z,22.00
2018-12-12T19:00:40.782Z,23.33
2018-12-12T19:03:07.875Z,21.80
2018-12-12T19:05:34.977Z,22.73
2018-12-12T19:08:02.196Z,21.13
2018-12-12T19:10:29.297Z,24.77
2018-12-12T19:15:21.527Z,25.00
2018-12-12T19:17:48.627Z,22.33
2018-12-12T19:20:15.744Z,22.83
2018-12-12T19:22:43.326Z,24.33
2018-12-12T19:25:10.548Z,25.20
2018-12-12T19:27:37.688Z,24.10
2018-12-12T19:30:05.412Z,20.77
2018-12-12T19:32:32.524Z,27.43
2018-12-12T19:34:59.699Z,25.70
2018-12-12T19:37:26.982Z,27.20
2018-12-12T19:39:54.131Z,25.67
2018-12-12T19:42:21.413Z,25.53
2018-12-12T19:44:48.666Z,27.43
2018-12-12T19:47:16.201Z,25.77
2018-12-12T19:49:43.368Z,25.43
2018-12-12T19:52:10.531Z,22.33
2018-12-12T19:54:37.638Z,23.50
2018-12-12T19:57:04.839Z,22.23
2018-12-12T19:59:32.111Z,25.63
2018-12-12T20:01:59.301Z,25.00
2018-12-12T20:04:27.488Z,29.37
2018-12-12T20:06:54.763Z,26.40
2018-12-12T20:09:21.879Z,23.07
2018-12-12T20:11:49.316Z,25.83
2018-12-12T20:14:16.550Z,27.67
2018-12-12T20:16:43.752Z,30.53
2018-12-12T20:19:10.858Z,26.93
2018-12-12T20:21:38.194Z,28.23
2018-12-12T20:24:05.315Z,28.53
2018-12-12T20:26:32.414Z,26.53
2018-12-12T20:28:59.581Z,29.67
2018-12-12T20:31:26.693Z,26.70
2018-12-12T20:33:53.818Z,31.20
2018-12-12T20:36:21.029Z,30.07
2018-12-12T20:38:48.124Z,28.10
2018-12-12T20:41:15.229Z,26.37
2018-12-12T20:43:42.366Z,31.17
2018-12-12T20:46:09.515Z,26.17
2018-12-12T20:48:36.715Z,28.50
2018-12-12T20:51:03.950Z,28.20
2018-12-12T20:53:31.064Z,25.90
2018-12-12T20:55:58.224Z,27.17
2018-12-12T20:58:25.399Z,26.43
2018-12-12T21:00:52.510Z,30.87
2018-12-12T21:03:19.616Z,27.80
2018-12-12T21:05:46.784Z,25.47
2018-12-12T21:08:13.923Z,29.43
2018-12-12T21:10:41.066Z,28.97
2018-12-12T21:13:08.259Z,24.53
2018-12-12T21:15:35.359Z,32.53
2018-12-12T21:18:02.542Z,26.50
2018-12-12T21:20:29.737Z,30.73
2018-12-12T21:22:56.867Z,28.27
2018-12-12T21:25:25.923Z,28.20
2018-12-12T21:27:53.216Z,25.07
2018-12-12T21:30:20.420Z,28.30
2018-12-12T21:32:47.570Z,27.87
2018-12-12T21:35:14.799Z,26.33
2018-12-12T21:37:41.918Z,26.93
2018-12-12T21:40:09.196Z,28.77
2018-12-12T21:42:36.456Z,24.67
2018-12-12T21:45:03.820Z,25.80
2018-12-12T21:47:30.934Z,37.80
2018-12-12T21:49:58.266Z,40.07
2018-12-12T21:52:25.390Z,26.77
2018-12-12T21:54:52.536Z,28.17
2018-12-12T21:57:19.768Z,25.43
2018-12-12T21:59:46.914Z,28.50
2018-12-12T22:02:14.003Z,29.03
2018-12-12T22:04:41.297Z,27.43
2018-12-12T22:07:08.406Z,27.10
2018-12-12T22:09:35.538Z,25.57
2018-12-12T22:12:02.711Z,28.03
2018-12-12T22:14:29.848Z,25.57
2018-12-12T22:16:56.944Z,29.10
2018-12-12T22:19:24.111Z,28.50
2018-12-12T22:21:51.323Z,29.53
2018-12-12T22:24:18.439Z,28.10
2018-12-12T22:26:45.611Z,26.23
2018-12-12T22:29:12.792Z,25.53
2018-12-12T22:31:39.899Z,28.07
2018-12-12T22:34:07.224Z,26.03
2018-12-12T22:36:34.441Z,26.83
2018-12-12T22:39:01.548Z,25.37
2018-12-12T22:41:28.729Z,30.07
2018-12-12T22:43:55.835Z,28.63
2018-12-12T22:46:22.942Z,28.13
2018-12-12T22:48:50.124Z,28.03
2018-12-12T22:51:17.316Z,24.60
2018-12-12T22:53:44.417Z,26.60
2018-12-12T22:56:11.601Z,29.10
2018-12-12T22:58:38.701Z,22.73
2018-12-12T23:01:09.906Z,25.93
2018-12-12T23:03:37.103Z,27.83
2018-12-12T23:06:04.223Z,24.90
2018-12-12T23:08:31.328Z,24.33
2018-12-12T23:10:58.505Z,25.10
2018-12-12T23:13:25.636Z,26.40
2018-12-12T23:15:52.761Z,25.57
2018-12-12T23:18:19.930Z,23.13
2018-12-12T23:20:47.069Z,26.43
2018-12-12T23:23:14.268Z,27.83
2018-12-12T23:25:41.425Z,23.53
2018-12-12T23:28:08.534Z,26.23
2018-12-12T23:30:35.711Z,27.40
2018-12-12T23:33:02.906Z,26.53
2018-12-12T23:35:30.008Z,28.83
2018-12-12T23:37:57.115Z,24.70
2018-12-12T23:40:24.281Z,23.87
2018-12-12T23:42:51.408Z,28.13
2018-12-12T23:45:18.510Z,24.43
2018-12-12T23:47:45.678Z,26.00
2018-12-12T23:50:12.804Z,27.57
2018-12-12T23:52:40.118Z,32.63
2018-12-12T23:55:07.426Z,50.87
2018-12-12T23:57:34.542Z,28.13
